createdAt,value
2019-02-16T00:02:20.751Z,69.92
2019-02-16T00:04:47.551Z,70.40
2019-02-16T00:07:16.035Z,69.81
2019-02-16T00:09:42.790Z,69.32
2019-02-16T00:12:09.768Z,70.57
2019-02-16T00:14:36.859Z,70.57
2019-02-16T00:17:06.632Z,69.32
2019-02-16T00:19:33.408Z,69.81
2019-02-16T00:22:00.220Z,69.81
2019-02-16T00:24:26.974Z,69.99
2019-02-16T00:26:53.728Z,69.28
2019-02-16T00:29:20.526Z,68.95
2019-02-16T00:31:47.260Z,69.20
2019-02-16T00:34:13.998Z,70.44
2019-02-16T00:36:40.854Z,70.73
2019-02-16T00:39:07.636Z,70.79
2019-02-16T00:41:34.386Z,70.06
2019-02-16T00:44:01.167Z,70.17
2019-02-16T00:46:27.976Z,69.94
2019-02-16T00:48:54.788Z,69.94
2019-02-16T00:51:21.826Z,69.95
2019-02-16T00:53:48.579Z,69.67
2019-02-16T00:56:15.499Z,70.41
2019-02-16T00:58:42.251Z,70.60
2019-02-16T01:01:10.144Z,70.30
2019-02-16T01:03:36.934Z,70.49
2019-02-16T01:06:05.957Z,70.51
2019-02-16T01:08:36.184Z,70.43
2019-02-16T01:11:02.942Z,70.30
2019-02-16T01:13:29.679Z,70.30
2019-02-16T01:15:57.852Z,70.91
2019-02-16T01:18:24.684Z,70.74
2019-02-16T01:20:51.405Z,71.21
2019-02-16T01:23:18.276Z,70.82
2019-02-16T01:25:44.991Z,72.55
2019-02-16T01:28:13.028Z,72.97
2019-02-16T01:30:39.914Z,73.59
2019-02-16T01:33:06.724Z,73.78
2019-02-16T01:35:33.486Z,72.85
2019-02-16T01:38:00.309Z,72.22
2019-02-16T01:40:27.052Z,72.05
2019-02-16T01:42:53.840Z,72.11
2019-02-16T01:45:20.538Z,72.35
2019-02-16T01:47:47.286Z,72.48
2019-02-16T01:50:14.067Z,72.09
2019-02-16T01:52:40.897Z,71.78
2019-02-16T01:55:09.151Z,71.86
2019-02-16T01:57:36.085Z,71.48
2019-02-16T02:00:04.780Z,72.09
2019-02-16T02:02:31.811Z,71.67
2019-02-16T02:04:58.566Z,71.58
2019-02-16T02:07:25.274Z,71.35
2019-02-16T02:09:52.337Z,71.75
2019-02-16T02:12:21.680Z,71.59
2019-02-16T02:14:51.034Z,71.51
2019-02-16T02:17:17.771Z,71.34
2019-02-16T02:19:44.529Z,71.12
2019-02-16T02:22:11.268Z,71.82
2019-02-16T02:24:38.009Z,72.20
2019-02-16T02:27:04.737Z,72.27
2019-02-16T02:29:34.319Z,72.15
2019-02-16T02:32:01.043Z,72.86
2019-02-16T02:34:27.782Z,72.93
2019-02-16T02:36:57.139Z,72.25
2019-02-16T02:39:23.939Z,71.96
2019-02-16T02:41:50.867Z,71.97
2019-02-16T02:44:17.616Z,72.15
2019-02-16T02:46:44.457Z,72.62
2019-02-16T02:49:11.295Z,72.30
2019-02-16T02:51:38.904Z,72.20
2019-02-16T02:54:05.651Z,72.84
2019-02-16T02:56:32.395Z,72.74
2019-02-16T02:58:59.234Z,72.55
2019-02-16T03:01:26.013Z,72.43
2019-02-16T03:03:52.794Z,71.54
2019-02-16T03:06:19.687Z,71.18
2019-02-16T03:08:46.528Z,71.36
2019-02-16T03:11:13.265Z,71.44
2019-02-16T03:13:40.123Z,72.09
2019-02-16T03:16:06.963Z,73.05
2019-02-16T03:18:33.837Z,73.85
2019-02-16T03:21:00.610Z,74.09
2019-02-16T03:23:28.862Z,73.09
2019-02-16T03:26:12.343Z,73.02
2019-02-16T03:29:11.551Z,72.89
2019-02-16T03:32:38.821Z,72.59
2019-02-16T03:35:41.122Z,72.49
2019-02-16T03:38:47.223Z,72.99
2019-02-16T03:41:16.613Z,72.79
2019-02-16T03:43:43.351Z,72.97
2019-02-16T03:46:10.068Z,72.87
2019-02-16T03:48:36.968Z,72.52
2019-02-16T03:51:03.717Z,72.64
2019-02-16T03:53:30.881Z,72.78
2019-02-16T03:55:57.604Z,73.00
2019-02-16T03:58:24.389Z,72.52
2019-02-16T04:00:51.251Z,73.16
2019-02-16T04:03:18.124Z,73.40
2019-02-16T04:05:44.847Z,73.18
2019-02-16T04:08:11.608Z,73.01
2019-02-16T04:10:38.337Z,72.94
2019-02-16T04:13:05.075Z,72.60
2019-02-16T04:15:35.108Z,72.77
2019-02-16T04:18:01.939Z,72.87
2019-02-16T04:20:28.687Z,73.36
2019-02-16T04:22:55.433Z,73.37
2019-02-16T04:25:22.169Z,73.21
2019-02-16T04:27:51.754Z,73.71
2019-02-16T04:30:18.595Z,72.99
2019-02-16T04:32:45.432Z,72.99
2019-02-16T04:35:12.198Z,72.56
2019-02-16T04:37:39.047Z,73.16
2019-02-16T04:40:07.864Z,73.14
2019-02-16T04:42:34.642Z,73.09
2019-02-16T04:45:01.369Z,72.58
2019-02-16T04:47:28.095Z,72.34
2019-02-16T04:49:54.814Z,72.39
2019-02-16T04:52:21.582Z,72.73
2019-02-16T04:54:48.291Z,73.15
2019-02-16T04:57:15.492Z,73.02
2019-02-16T04:59:42.217Z,73.36
2019-02-16T05:02:08.949Z,72.83
2019-02-16T05:04:35.691Z,72.52
2019-02-16T05:07:02.783Z,72.97
2019-02-16T05:09:29.502Z,73.41
2019-02-16T05:11:56.367Z,73.62
2019-02-16T05:14:23.206Z,72.84
2019-02-16T05:16:51.921Z,72.95
2019-02-16T05:19:18.668Z,72.92
2019-02-16T05:21:45.446Z,73.40
2019-02-16T05:24:13.648Z,73.48
2019-02-16T05:26:40.361Z,73.56
2019-02-16T05:29:10.081Z,73.43
2019-02-16T05:31:37.382Z,73.61
2019-02-16T05:34:04.210Z,73.63
2019-02-16T05:36:31.605Z,74.58
2019-02-16T05:39:04.164Z,75.89
2019-02-16T05:41:30.929Z,75.17
2019-02-16T05:44:00.937Z,74.81
2019-02-16T05:46:27.782Z,73.94
2019-02-16T05:48:54.500Z,74.19
2019-02-16T05:51:21.591Z,74.20
2019-02-16T05:53:48.342Z,74.03
2019-02-16T05:56:15.096Z,73.80
2019-02-16T05:58:41.834Z,74.32
2019-02-16T06:01:08.607Z,74.17
2019-02-16T06:03:35.399Z,73.75
2019-02-16T06:06:02.175Z,73.82
2019-02-16T06:08:28.935Z,73.68
2019-02-16T06:10:58.556Z,73.29
2019-02-16T06:13:25.283Z,73.45
2019-02-16T06:15:52.175Z,73.24
2019-02-16T06:18:19.336Z,72.90
2019-02-16T06:20:48.875Z,73.30
2019-02-16T06:23:15.761Z,73.73
2019-02-16T06:25:42.497Z,73.80
2019-02-16T06:28:09.374Z,73.86
2019-02-16T06:30:36.109Z,73.73
2019-02-16T06:33:02.829Z,74.24
2019-02-16T06:35:40.035Z,73.86
2019-02-16T06:38:07.624Z,74.02
2019-02-16T06:40:34.844Z,73.63
2019-02-16T06:43:01.589Z,73.25
2019-02-16T06:45:28.416Z,73.55
2019-02-16T06:47:55.262Z,73.98
2019-02-16T06:50:22.007Z,74.29
2019-02-16T06:52:51.651Z,73.87
2019-02-16T06:55:18.454Z,74.69
2019-02-16T06:57:47.984Z,73.90
2019-02-16T07:00:16.919Z,73.78
2019-02-16T07:02:43.892Z,73.49
2019-02-16T07:05:11.135Z,73.62
2019-02-16T07:07:37.902Z,73.10
2019-02-16T07:10:05.664Z,73.36
2019-02-16T07:12:43.592Z,73.66
2019-02-16T07:15:10.336Z,73.24
2019-02-16T07:17:52.525Z,73.04
2019-02-16T07:20:21.179Z,73.88
2019-02-16T07:22:48.125Z,73.17
2019-02-16T07:25:15.232Z,73.41
2019-02-16T07:27:41.990Z,73.34
2019-02-16T07:30:13.745Z,73.14
2019-02-16T07:32:43.353Z,72.97
2019-02-16T07:35:10.481Z,72.56
2019-02-16T07:37:37.626Z,72.74
2019-02-16T07:40:04.502Z,72.47
2019-02-16T07:42:48.174Z,72.84
2019-02-16T07:45:21.256Z,72.29
2019-02-16T07:48:07.600Z,72.23
2019-02-16T07:50:48.959Z,72.20
2019-02-16T07:53:41.361Z,72.23
2019-02-16T07:56:30.238Z,72.13
2019-02-16T07:59:16.918Z,72.10
2019-02-16T08:01:49.931Z,71.26
2019-02-16T08:04:30.844Z,71.25
2019-02-16T08:07:20.927Z,71.72
2019-02-16T08:10:05.831Z,71.94
2019-02-16T08:12:54.965Z,71.61
2019-02-16T08:15:41.377Z,71.13
2019-02-16T08:18:33.852Z,70.51
2019-02-16T08:21:20.161Z,70.44
2019-02-16T08:24:15.385Z,70.41
2019-02-16T08:26:55.198Z,70.02
2019-02-16T08:29:44.604Z,70.07
2019-02-16T08:32:43.264Z,70.39
2019-02-16T08:35:25.991Z,70.54
2019-02-16T08:38:11.183Z,70.01
2019-02-16T08:41:00.630Z,70.13
2019-02-16T08:43:49.168Z,69.63
2019-02-16T08:46:26.795Z,69.78
2019-02-16T08:49:06.585Z,69.55
2019-02-16T08:51:48.587Z,68.90
2019-02-16T08:54:23.981Z,68.72
2019-02-16T08:57:12.595Z,68.80
2019-02-16T09:00:14.231Z,68.11
2019-02-16T09:02:59.774Z,68.80
2019-02-16T09:05:51.400Z,68.11
2019-02-16T09:08:34.399Z,67.10
2019-02-16T09:11:27.289Z,66.83
2019-02-16T09:14:00.847Z,66.27
2019-02-16T09:16:38.395Z,66.14
2019-02-16T09:19:24.317Z,66.07
2019-02-16T09:22:17.814Z,65.64
2019-02-16T09:24:53.645Z,65.62
2019-02-16T09:27:48.986Z,65.42
2019-02-16T09:30:40.599Z,64.53
2019-02-16T09:33:27.526Z,64.34
2019-02-16T09:36:16.891Z,64.05
2019-02-16T09:39:07.899Z,63.92
2019-02-16T09:41:55.105Z,63.77
2019-02-16T09:44:41.621Z,63.37
2019-02-16T09:47:37.216Z,63.44
2019-02-16T09:50:10.650Z,63.02
2019-02-16T09:52:50.325Z,62.55
2019-02-16T09:55:45.902Z,62.55
2019-02-16T09:58:31.315Z,61.98
2019-02-16T10:01:24.145Z,61.33
2019-02-16T10:04:28.612Z,61.33
2019-02-16T10:07:10.617Z,61.00
2019-02-16T10:09:57.312Z,61.00
2019-02-16T10:12:34.514Z,60.88
2019-02-16T10:15:24.381Z,60.64
2019-02-16T10:18:06.295Z,60.64
2019-02-16T10:20:51.311Z,60.47
2019-02-16T10:23:33.053Z,59.99
2019-02-16T10:26:15.330Z,59.72
2019-02-16T10:28:52.444Z,59.72
2019-02-16T10:31:37.329Z,59.02
2019-02-16T10:34:29.867Z,59.02
2019-02-16T10:37:07.296Z,58.52
2019-02-16T10:40:06.223Z,58.71
2019-02-16T10:43:07.664Z,58.54
2019-02-16T10:45:56.412Z,58.08
2019-02-16T10:48:31.023Z,57.39
2019-02-16T10:51:08.929Z,57.56
2019-02-16T10:53:55.309Z,57.45
2019-02-16T10:56:37.776Z,57.38
2019-02-16T10:59:30.234Z,57.44
2019-02-16T11:02:32.009Z,57.46
2019-02-16T11:05:16.743Z,56.81
2019-02-16T11:08:06.407Z,56.71
2019-02-16T11:13:29.267Z,57.05
2019-02-16T11:16:03.557Z,56.60
2019-02-16T11:18:39.829Z,56.34
2019-02-16T11:21:41.597Z,56.24
2019-02-16T11:24:46.834Z,55.94
2019-02-16T11:27:25.123Z,55.70
2019-02-16T11:30:12.185Z,55.22
2019-02-16T11:32:52.554Z,54.67
2019-02-16T11:35:40.375Z,54.77
2019-02-16T11:38:13.519Z,54.58
2019-02-16T11:41:06.261Z,54.08
2019-02-16T11:43:58.404Z,53.08
2019-02-16T11:46:44.805Z,52.81
2019-02-16T11:49:27.374Z,51.19
2019-02-16T11:52:03.683Z,50.66
2019-02-16T11:55:02.271Z,50.13
2019-02-16T11:57:46.598Z,49.84
2019-02-16T12:00:31.998Z,50.11
2019-02-16T12:03:04.706Z,48.94
2019-02-16T12:05:36.228Z,48.40
2019-02-16T12:08:28.481Z,47.75
2019-02-16T12:11:08.516Z,47.58
2019-02-16T12:13:54.057Z,47.43
2019-02-16T12:16:30.360Z,45.18
2019-02-16T12:19:19.711Z,45.11
2019-02-16T12:22:14.482Z,45.22
2019-02-16T12:25:05.718Z,44.70
2019-02-16T12:27:46.244Z,43.80
2019-02-16T12:30:31.545Z,43.29
2019-02-16T12:33:06.571Z,43.36
2019-02-16T12:35:54.337Z,42.87
2019-02-16T12:38:39.406Z,42.50
2019-02-16T12:41:25.971Z,42.14
2019-02-16T12:44:11.649Z,41.95
2019-02-16T12:46:56.050Z,42.00
2019-02-16T12:49:35.604Z,40.95
2019-02-16T12:52:15.813Z,40.83
2019-02-16T12:54:50.957Z,40.59
2019-02-16T12:57:45.330Z,39.71
2019-02-16T13:00:28.373Z,40.51
2019-02-16T13:03:11.783Z,40.08
2019-02-16T13:05:54.626Z,39.82
2019-02-16T13:08:48.307Z,39.70
2019-02-16T13:11:35.043Z,39.96
2019-02-16T13:14:25.692Z,39.11
2019-02-16T13:17:15.407Z,38.93
2019-02-16T13:19:54.233Z,39.16
2019-02-16T13:22:32.830Z,38.66
2019-02-16T13:25:12.520Z,38.41
2019-02-16T13:28:02.651Z,38.45
2019-02-16T13:30:43.889Z,38.20
2019-02-16T13:33:23.996Z,38.26
2019-02-16T13:36:28.466Z,37.29
2019-02-16T13:39:19.746Z,36.95
2019-02-16T13:41:58.264Z,37.07
2019-02-16T13:44:41.170Z,36.66
2019-02-16T13:47:18.951Z,36.41
2019-02-16T13:50:14.422Z,36.35
2019-02-16T13:53:12.893Z,36.32
2019-02-16T13:55:59.618Z,35.26
2019-02-16T13:58:33.491Z,35.86
2019-02-16T14:01:19.484Z,34.81
2019-02-16T14:03:57.933Z,34.67
2019-02-16T14:06:37.612Z,35.08
2019-02-16T14:09:30.598Z,34.73
2019-02-16T14:12:30.184Z,34.52
2019-02-16T14:15:06.700Z,34.27
2019-02-16T14:17:44.650Z,34.64
2019-02-16T14:20:12.082Z,33.87
2019-02-16T14:22:39.316Z,34.62
2019-02-16T14:25:08.709Z,33.57
2019-02-16T14:27:35.776Z,34.05
2019-02-16T14:30:02.950Z,33.85
2019-02-16T14:32:31.910Z,34.56
2019-02-16T14:34:58.935Z,34.38
2019-02-16T14:37:48.631Z,33.84
2019-02-16T14:40:15.524Z,34.11
2019-02-16T14:42:42.628Z,34.88
2019-02-16T14:45:10.504Z,35.46
2019-02-16T14:47:37.384Z,36.04
2019-02-16T14:50:04.779Z,36.38
2019-02-16T14:52:35.002Z,36.60
2019-02-16T14:55:01.848Z,36.54
2019-02-16T14:57:28.717Z,36.94
2019-02-16T14:59:56.293Z,37.26
2019-02-16T15:02:25.651Z,37.45
2019-02-16T15:04:52.580Z,37.25
2019-02-16T15:07:19.338Z,37.30
2019-02-16T15:09:46.408Z,37.22
2019-02-16T15:12:13.614Z,37.68
2019-02-16T15:14:40.355Z,38.03
2019-02-16T15:17:07.481Z,38.00
2019-02-16T15:19:34.341Z,37.89
2019-02-16T15:22:01.063Z,38.02
2019-02-16T15:24:28.061Z,37.71
2019-02-16T15:26:55.004Z,37.58
2019-02-16T15:29:23.995Z,37.89
2019-02-16T15:31:50.894Z,38.05
2019-02-16T15:34:17.681Z,37.94
2019-02-16T15:36:44.666Z,38.60
2019-02-16T15:39:11.441Z,38.34
2019-02-16T15:41:38.215Z,38.44
2019-02-16T15:44:05.045Z,38.95
2019-02-16T15:46:31.861Z,38.41
2019-02-16T15:48:59.520Z,39.11
2019-02-16T15:51:26.317Z,38.99
2019-02-16T15:53:53.159Z,39.32
2019-02-16T15:56:21.629Z,39.39
2019-02-16T15:58:48.589Z,39.23
2019-02-16T16:01:15.695Z,39.65
2019-02-16T16:03:42.517Z,39.62
2019-02-16T16:06:09.344Z,39.84
2019-02-16T16:09:02.025Z,40.08
2019-02-16T16:11:50.510Z,40.42
2019-02-16T16:14:37.113Z,40.73
2019-02-16T16:17:38.623Z,40.79
2019-02-16T16:20:28.074Z,41.22
2019-02-16T16:23:06.815Z,41.38
2019-02-16T16:25:39.894Z,41.47
2019-02-16T16:28:22.767Z,41.59
2019-02-16T16:30:57.639Z,41.83
2019-02-16T16:33:52.657Z,42.12
2019-02-16T16:36:28.939Z,42.37
2019-02-16T16:39:16.721Z,42.62
2019-02-16T16:42:05.956Z,42.93
2019-02-16T16:44:38.043Z,43.18
2019-02-16T16:47:42.689Z,44.02
2019-02-16T16:50:25.011Z,44.71
2019-02-16T16:53:10.265Z,45.59
2019-02-16T16:55:53.573Z,46.48
2019-02-16T16:58:42.795Z,47.23
2019-02-16T17:01:27.635Z,47.74
2019-02-16T17:04:17.519Z,48.01
2019-02-16T17:07:08.407Z,48.24
2019-02-16T17:09:53.465Z,48.28
2019-02-16T17:12:40.044Z,48.49
2019-02-16T17:15:19.728Z,48.74
2019-02-16T17:17:54.172Z,48.81
2019-02-16T17:20:30.694Z,49.10
2019-02-16T17:23:20.149Z,49.28
2019-02-16T17:26:10.116Z,49.99
2019-02-16T17:28:50.967Z,50.82
2019-02-16T17:31:23.541Z,51.76
2019-02-16T17:34:21.589Z,52.97
2019-02-16T17:36:57.854Z,53.54
2019-02-16T17:39:38.564Z,53.94
2019-02-16T17:42:43.411Z,53.96
2019-02-16T17:45:33.409Z,53.71
2019-02-16T17:48:20.241Z,53.61
2019-02-16T17:50:56.495Z,53.73
2019-02-16T17:53:43.306Z,53.62
2019-02-16T17:56:22.357Z,53.94
2019-02-16T17:59:17.606Z,54.00
2019-02-16T18:01:54.741Z,54.15
2019-02-16T18:04:41.167Z,54.42
2019-02-16T18:07:18.315Z,54.69
2019-02-16T18:10:04.681Z,55.46
2019-02-16T18:12:43.710Z,55.96
2019-02-16T18:15:33.593Z,56.33
2019-02-16T18:18:35.289Z,56.72
2019-02-16T18:21:10.368Z,56.92
2019-02-16T18:23:50.589Z,57.06
2019-02-16T18:26:56.742Z,57.50
2019-02-16T18:29:46.383Z,57.83
2019-02-16T18:32:35.803Z,57.95
2019-02-16T18:35:31.287Z,58.45
2019-02-16T18:38:16.333Z,58.74
2019-02-16T18:41:09.134Z,59.33
2019-02-16T18:43:45.587Z,59.18
2019-02-16T18:46:46.703Z,59.29
2019-02-16T18:49:31.646Z,59.66
2019-02-16T18:52:16.947Z,59.69
2019-02-16T18:54:58.798Z,59.81
2019-02-16T18:57:51.000Z,60.26
2019-02-16T19:00:49.476Z,60.35
2019-02-16T19:03:45.362Z,60.50
2019-02-16T19:06:39.467Z,60.76
2019-02-16T19:09:24.206Z,60.78
2019-02-16T19:12:09.548Z,60.78
2019-02-16T19:15:07.787Z,60.72
2019-02-16T19:17:50.338Z,60.96
2019-02-16T19:20:35.307Z,60.87
2019-02-16T19:23:36.766Z,61.28
2019-02-16T19:26:31.689Z,61.36
2019-02-16T19:29:07.906Z,61.67
2019-02-16T19:31:48.680Z,62.17
2019-02-16T19:34:35.068Z,62.77
2019-02-16T19:37:21.432Z,62.77
2019-02-16T19:39:57.607Z,63.10
2019-02-16T19:42:49.775Z,63.05
2019-02-16T19:45:48.493Z,63.63
2019-02-16T19:48:37.904Z,63.57
2019-02-16T19:51:23.223Z,63.77
2019-02-16T19:54:04.334Z,64.15
2019-02-16T19:56:53.700Z,63.95
2019-02-16T19:59:49.187Z,64.13
2019-02-16T20:02:39.195Z,64.16
2019-02-16T20:05:25.321Z,64.11
2019-02-16T20:08:00.710Z,64.41
2019-02-16T20:10:41.464Z,64.10
2019-02-16T20:13:26.595Z,63.82
2019-02-16T20:16:05.452Z,64.66
2019-02-16T20:18:51.847Z,64.86
2019-02-16T20:21:34.463Z,65.00
2019-02-16T20:24:17.798Z,65.18
2019-02-16T20:27:08.749Z,64.70
2019-02-16T20:29:45.772Z,64.84
2019-02-16T20:32:30.546Z,65.06
2019-02-16T20:35:19.293Z,65.28
2019-02-16T20:38:18.025Z,65.57
2019-02-16T20:41:03.295Z,66.05
2019-02-16T20:43:59.618Z,66.00
2019-02-16T20:46:31.874Z,65.67
2019-02-16T20:49:24.007Z,65.67
2019-02-16T20:52:13.176Z,66.35
2019-02-16T20:55:11.773Z,66.56
2019-02-16T20:57:48.369Z,66.63
2019-02-16T21:00:29.418Z,66.78
2019-02-16T21:03:18.551Z,66.94
2019-02-16T21:06:17.060Z,66.41
2019-02-16T21:09:09.261Z,66.33
2019-02-16T21:11:55.667Z,66.72
2019-02-16T21:14:31.225Z,67.33
2019-02-16T21:17:06.866Z,67.32
2019-02-16T21:19:44.789Z,67.63
2019-02-16T21:22:33.918Z,67.95
2019-02-16T21:25:09.791Z,68.32
2019-02-16T21:27:43.438Z,68.16
2019-02-16T21:30:37.989Z,68.34
2019-02-16T21:33:39.716Z,67.57
2019-02-16T21:36:19.028Z,66.79
2019-02-16T21:39:11.362Z,67.71
2019-02-16T21:42:04.302Z,68.48
2019-02-16T21:45:02.690Z,68.73
2019-02-16T21:47:47.586Z,68.53
2019-02-16T21:50:32.416Z,68.41
2019-02-16T21:53:08.657Z,68.39
2019-02-16T21:56:01.562Z,67.88
2019-02-16T21:58:50.794Z,68.10
2019-02-16T22:01:28.408Z,68.10
2019-02-16T22:04:04.831Z,68.37
2019-02-16T22:06:43.468Z,68.34
2019-02-16T22:09:28.414Z,68.30
2019-02-16T22:12:20.727Z,68.50
2019-02-16T22:14:47.467Z,68.77
2019-02-16T22:17:14.216Z,68.82
2019-02-16T22:19:41.027Z,68.73
2019-02-16T22:22:07.793Z,69.78
2019-02-16T22:24:34.775Z,69.78
2019-02-16T22:27:01.553Z,69.48
2019-02-16T22:29:30.313Z,69.42
2019-02-16T22:31:57.120Z,69.42
2019-02-16T22:34:23.857Z,69.25
2019-02-16T22:36:50.646Z,69.64
2019-02-16T22:39:17.766Z,69.82
2019-02-16T22:41:44.505Z,70.47
2019-02-16T22:44:11.322Z,70.28
2019-02-16T22:46:40.419Z,69.87
2019-02-16T22:49:07.201Z,69.02
2019-02-16T22:51:34.041Z,69.02
2019-02-16T22:54:01.171Z,69.59
2019-02-16T22:56:28.394Z,69.59
2019-02-16T22:58:55.389Z,70.15
2019-02-16T23:01:22.245Z,70.39
2019-02-16T23:03:49.003Z,70.39
2019-02-16T23:06:15.777Z,69.83
2019-02-16T23:08:42.661Z,69.87
2019-02-16T23:11:09.426Z,69.53
2019-02-16T23:13:36.499Z,70.38
2019-02-16T23:16:03.269Z,70.38
2019-02-16T23:18:30.038Z,70.10
2019-02-16T23:20:57.274Z,69.93
2019-02-16T23:23:24.055Z,70.64
2019-02-16T23:25:53.819Z,71.47
2019-02-16T23:28:20.600Z,70.52
2019-02-16T23:30:49.329Z,70.30
2019-02-16T23:33:16.187Z,70.99
2019-02-16T23:35:43.109Z,70.99
2019-02-16T23:38:10.000Z,70.32
2019-02-16T23:40:36.934Z,70.88
2019-02-16T23:43:03.781Z,71.09
2019-02-16T23:45:30.581Z,70.42
2019-02-16T23:47:57.333Z,70.68
2019-02-16T23:50:24.237Z,70.29
2019-02-16T23:52:51.097Z,70.51
2019-02-16T23:55:17.854Z,70.51
2019-02-16T23:57:44.885Z,70.74
